EDW24E LSZH-EGPH
Flight info
| Callsign | EDW24E |
|---|---|
| Flight time | 1h 42m |
| Altitude | 40000 |
| Route | VEBIT T10 TORPA DCT REKLA DCT RLP DCT ROTSI DCT KOTUN DCT AMAXA DCT VESAN DCT RATUK DCT SOVAT L613 LEHOC DCT INPIP |
| Aircraft | A359/H-SDE2E3GHIJ3J4J5LM1ORWXY/LB1D1 |
Departure
| Time | 2026-05-04 19:23 |
|---|---|
| Airport | Zürich Airport (LSZH) |
Arrival
| Time | 2026-05-04 21:05 |
|---|---|
| Airport | Edinburgh Airport (EGPH) |
| Time | Latitude | Longitude | Altitude | Speed | Heading |
|---|---|---|---|---|---|
| 2026-05-04 19:23 | 47.35435 | 8.24712 | 12104 ft | 329 kts | 241° |
| 2026-05-04 19:23 | 47.34365 | 8.21702 | 13009 ft | 334 kts | 241° |
| 2026-05-04 19:23 | 47.33284 | 8.18653 | 13929 ft | 338 kts | 242° |
| 2026-05-04 19:24 | 47.32185 | 8.15559 | 14748 ft | 343 kts | 242° |
| 2026-05-04 19:24 | 47.31067 | 8.12409 | 15515 ft | 349 kts | 242° |
| 2026-05-04 19:24 | 47.29934 | 8.09213 | 16304 ft | 353 kts | 242° |
| 2026-05-04 19:24 | 47.28784 | 8.05983 | 17104 ft | 358 kts | 242° |
| 2026-05-04 19:25 | 47.27730 | 8.02633 | 17892 ft | 363 kts | 249° |
| 2026-05-04 19:25 | 47.27198 | 7.98968 | 18663 ft | 370 kts | 264° |
| 2026-05-04 19:25 | 47.27258 | 7.95154 | 19392 ft | 376 kts | 272° |
| 2026-05-04 19:25 | 47.27543 | 7.91347 | 19955 ft | 380 kts | 275° |
| 2026-05-04 19:26 | 47.27927 | 7.87586 | 20461 ft | 383 kts | 276° |
| 2026-05-04 19:26 | 47.28361 | 7.83690 | 20990 ft | 386 kts | 276° |
| 2026-05-04 19:26 | 47.28794 | 7.79763 | 21533 ft | 389 kts | 276° |
| 2026-05-04 19:26 | 47.29212 | 7.75808 | 22077 ft | 392 kts | 275° |
| 2026-05-04 19:27 | 47.29613 | 7.71819 | 22641 ft | 395 kts | 275° |
| 2026-05-04 19:27 | 47.30003 | 7.67781 | 23218 ft | 399 kts | 275° |
| 2026-05-04 19:27 | 47.30464 | 7.63719 | 23760 ft | 404 kts | 279° |
| 2026-05-04 19:27 | 47.31187 | 7.59695 | 24255 ft | 409 kts | 282° |
| 2026-05-04 19:28 | 47.31997 | 7.55689 | 24744 ft | 413 kts | 283° |
| 2026-05-04 19:28 | 47.32865 | 7.51635 | 25252 ft | 416 kts | 284° |
| 2026-05-04 19:28 | 47.33762 | 7.47542 | 25769 ft | 420 kts | 284° |
| 2026-05-04 19:28 | 47.34669 | 7.43430 | 26298 ft | 423 kts | 284° |
| 2026-05-04 19:29 | 47.35567 | 7.39343 | 26824 ft | 427 kts | 283° |
| 2026-05-04 19:29 | 47.36479 | 7.35155 | 27371 ft | 430 kts | 283° |
| 2026-05-04 19:29 | 47.37395 | 7.30923 | 27927 ft | 434 kts | 283° |
| 2026-05-04 19:29 | 47.38315 | 7.26650 | 28498 ft | 438 kts | 283° |
| 2026-05-04 19:30 | 47.39239 | 7.22346 | 29065 ft | 441 kts | 283° |
| 2026-05-04 19:30 | 47.40159 | 7.18054 | 29664 ft | 444 kts | 283° |
| 2026-05-04 19:30 | 47.40962 | 7.13607 | 30217 ft | 444 kts | 278° |
| 2026-05-04 19:30 | 47.41652 | 7.09194 | 30585 ft | 449 kts | 278° |
| 2026-05-04 19:31 | 47.42330 | 7.04668 | 30991 ft | 453 kts | 277° |
| 2026-05-04 19:31 | 47.42999 | 7.00103 | 31457 ft | 455 kts | 277° |
| 2026-05-04 19:31 | 47.43665 | 6.95515 | 31948 ft | 457 kts | 277° |
| 2026-05-04 19:31 | 47.44331 | 6.90916 | 32411 ft | 459 kts | 277° |
| 2026-05-04 19:32 | 47.45001 | 6.86287 | 32852 ft | 461 kts | 278° |
| 2026-05-04 19:32 | 47.45672 | 6.81648 | 33277 ft | 463 kts | 278° |
| 2026-05-04 19:32 | 47.46346 | 6.76983 | 33702 ft | 465 kts | 278° |
| 2026-05-04 19:32 | 47.47021 | 6.72302 | 34074 ft | 467 kts | 278° |
| 2026-05-04 19:33 | 47.47684 | 6.67594 | 34389 ft | 468 kts | 276° |
| 2026-05-04 19:33 | 47.48134 | 6.62907 | 34821 ft | 465 kts | 273° |
| 2026-05-04 19:33 | 47.48520 | 6.58105 | 35257 ft | 463 kts | 273° |
| 2026-05-04 19:33 | 47.48869 | 6.53442 | 35665 ft | 462 kts | 272° |
| 2026-05-04 19:34 | 47.49274 | 6.48714 | 36040 ft | 464 kts | 276° |
| 2026-05-04 19:34 | 47.50041 | 6.44038 | 36412 ft | 468 kts | 284° |
| 2026-05-04 19:34 | 47.51265 | 6.39552 | 36765 ft | 473 kts | 293° |
| 2026-05-04 19:34 | 47.52926 | 6.35339 | 37150 ft | 476 kts | 299° |
| 2026-05-04 19:35 | 47.54805 | 6.31294 | 37527 ft | 477 kts | 302° |
| 2026-05-04 19:35 | 47.56791 | 6.27336 | 37897 ft | 478 kts | 303° |
| 2026-05-04 19:35 | 47.58778 | 6.23490 | 38273 ft | 477 kts | 304° |
| 2026-05-04 19:35 | 47.60804 | 6.19580 | 38631 ft | 477 kts | 303° |
| 2026-05-04 19:36 | 47.62811 | 6.15671 | 38900 ft | 476 kts | 303° |
| 2026-05-04 19:36 | 47.64806 | 6.11741 | 39137 ft | 477 kts | 303° |
| 2026-05-04 19:36 | 47.66794 | 6.07785 | 39373 ft | 477 kts | 303° |
| 2026-05-04 19:36 | 47.68771 | 6.03823 | 39598 ft | 477 kts | 303° |
| 2026-05-04 19:37 | 47.70748 | 5.99847 | 39834 ft | 478 kts | 303° |
| 2026-05-04 19:37 | 47.72718 | 5.95874 | 39977 ft | 479 kts | 303° |
| 2026-05-04 19:37 | 47.74701 | 5.91872 | 39998 ft | 479 kts | 303° |
| 2026-05-04 19:38 | 47.78623 | 5.83941 | 39995 ft | 479 kts | 303° |
| 2026-05-04 19:38 | 47.82573 | 5.75935 | 39996 ft | 479 kts | 303° |
| 2026-05-04 19:39 | 47.86499 | 5.67958 | 39990 ft | 480 kts | 303° |
| 2026-05-04 19:39 | 47.90489 | 5.59903 | 39989 ft | 481 kts | 305° |
| 2026-05-04 19:40 | 47.95124 | 5.52696 | 39986 ft | 485 kts | 313° |
| 2026-05-04 19:40 | 48.00122 | 5.45902 | 39982 ft | 487 kts | 315° |
| 2026-05-04 19:41 | 48.05175 | 5.39170 | 39981 ft | 487 kts | 315° |
| 2026-05-04 19:41 | 48.10218 | 5.32380 | 39979 ft | 487 kts | 314° |
| 2026-05-04 19:42 | 48.15241 | 5.25549 | 39976 ft | 488 kts | 314° |
| 2026-05-04 19:42 | 48.20220 | 5.18746 | 39970 ft | 488 kts | 314° |
| 2026-05-04 19:43 | 48.25252 | 5.11850 | 39967 ft | 488 kts | 314° |
| 2026-05-04 19:43 | 48.30271 | 5.04957 | 39968 ft | 489 kts | 314° |
| 2026-05-04 19:44 | 48.35294 | 4.98041 | 39962 ft | 489 kts | 314° |
| 2026-05-04 19:44 | 48.40324 | 4.91094 | 39960 ft | 490 kts | 314° |
| 2026-05-04 19:45 | 48.45316 | 4.84183 | 39958 ft | 490 kts | 314° |
| 2026-05-04 19:45 | 48.50337 | 4.77209 | 39956 ft | 490 kts | 314° |
| 2026-05-04 19:46 | 48.55353 | 4.70223 | 39954 ft | 491 kts | 314° |
| 2026-05-04 19:46 | 48.60364 | 4.63224 | 39952 ft | 491 kts | 314° |
| 2026-05-04 19:47 | 48.65380 | 4.56200 | 39953 ft | 491 kts | 314° |
| 2026-05-04 19:47 | 48.70359 | 4.49207 | 39960 ft | 490 kts | 314° |
| 2026-05-04 19:48 | 48.75362 | 4.42160 | 39961 ft | 490 kts | 314° |
| 2026-05-04 19:48 | 48.80360 | 4.35101 | 39966 ft | 490 kts | 314° |
| 2026-05-04 19:49 | 48.85343 | 4.28041 | 39968 ft | 490 kts | 314° |
| 2026-05-04 19:49 | 48.90334 | 4.20952 | 39963 ft | 490 kts | 314° |
| 2026-05-04 19:50 | 48.95283 | 4.13901 | 39961 ft | 490 kts | 314° |
| 2026-05-04 19:50 | 49.00251 | 4.06802 | 39942 ft | 490 kts | 314° |
| 2026-05-04 19:51 | 49.05222 | 3.99679 | 39942 ft | 490 kts | 314° |
| 2026-05-04 19:51 | 49.10198 | 3.92527 | 39945 ft | 490 kts | 314° |
| 2026-05-04 19:52 | 49.15155 | 3.85383 | 39944 ft | 490 kts | 314° |
| 2026-05-04 19:52 | 49.20076 | 3.78271 | 39944 ft | 490 kts | 314° |
| 2026-05-04 19:53 | 49.25038 | 3.71078 | 39947 ft | 490 kts | 314° |
| 2026-05-04 19:53 | 49.29995 | 3.63872 | 39936 ft | 490 kts | 314° |
| 2026-05-04 19:54 | 49.34907 | 3.56711 | 39957 ft | 490 kts | 314° |
| 2026-05-04 19:54 | 49.39853 | 3.49479 | 39958 ft | 490 kts | 314° |
| 2026-05-04 19:55 | 49.44791 | 3.42238 | 39945 ft | 490 kts | 314° |
| 2026-05-04 19:55 | 49.49727 | 3.34977 | 39947 ft | 490 kts | 314° |
| 2026-05-04 19:56 | 49.54653 | 3.27710 | 39949 ft | 490 kts | 314° |
| 2026-05-04 19:56 | 49.59544 | 3.20474 | 39955 ft | 490 kts | 314° |
| 2026-05-04 19:57 | 49.64469 | 3.13167 | 39952 ft | 490 kts | 314° |
| 2026-05-04 19:57 | 49.69376 | 3.05863 | 39955 ft | 490 kts | 314° |
| 2026-05-04 19:58 | 49.74263 | 2.98570 | 39960 ft | 490 kts | 314° |
| 2026-05-04 19:58 | 49.78373 | 2.92418 | 39961 ft | 490 kts | 314° |
| 2026-05-04 19:59 | 49.83242 | 2.85111 | 39964 ft | 490 kts | 314° |
| 2026-05-04 19:59 | 49.88132 | 2.77749 | 39963 ft | 490 kts | 314° |
| 2026-05-04 20:00 | 49.93018 | 2.70372 | 39968 ft | 490 kts | 314° |
| 2026-05-04 20:00 | 49.97902 | 2.62977 | 39964 ft | 490 kts | 314° |
| 2026-05-04 20:01 | 50.02784 | 2.55563 | 39969 ft | 490 kts | 314° |
| 2026-05-04 20:01 | 50.07654 | 2.48143 | 39972 ft | 490 kts | 314° |
| 2026-05-04 20:02 | 50.12501 | 2.40737 | 39974 ft | 490 kts | 314° |
| 2026-05-04 20:02 | 50.17373 | 2.33271 | 39980 ft | 491 kts | 314° |
| 2026-05-04 20:03 | 50.22248 | 2.25778 | 39986 ft | 491 kts | 314° |
| 2026-05-04 20:03 | 50.27122 | 2.18262 | 39988 ft | 492 kts | 314° |
| 2026-05-04 20:04 | 50.31972 | 2.10762 | 39989 ft | 492 kts | 313° |
| 2026-05-04 20:04 | 50.36844 | 2.03205 | 39988 ft | 492 kts | 313° |
| 2026-05-04 20:05 | 50.41869 | 1.95892 | 39992 ft | 493 kts | 317° |
| 2026-05-04 20:05 | 50.47122 | 1.88937 | 39993 ft | 494 kts | 318° |
| 2026-05-04 20:06 | 50.52361 | 1.81953 | 39994 ft | 494 kts | 317° |
| 2026-05-04 20:06 | 50.57528 | 1.74917 | 39999 ft | 494 kts | 317° |
| 2026-05-04 20:07 | 50.62710 | 1.67788 | 39992 ft | 494 kts | 317° |
| 2026-05-04 20:07 | 50.67889 | 1.60641 | 39998 ft | 494 kts | 317° |
| 2026-05-04 20:08 | 50.73053 | 1.53488 | 40000 ft | 494 kts | 317° |
| 2026-05-04 20:08 | 50.78174 | 1.46365 | 40008 ft | 494 kts | 317° |
| 2026-05-04 20:09 | 50.83341 | 1.39179 | 40016 ft | 494 kts | 317° |
| 2026-05-04 20:09 | 50.88504 | 1.31964 | 40017 ft | 494 kts | 316° |
| 2026-05-04 20:10 | 50.93652 | 1.24749 | 40019 ft | 494 kts | 316° |
| 2026-05-04 20:10 | 50.98801 | 1.17512 | 40021 ft | 494 kts | 316° |
| 2026-05-04 20:11 | 51.03903 | 1.10322 | 40021 ft | 493 kts | 316° |
| 2026-05-04 20:11 | 51.07591 | 1.05577 | 40025 ft | 495 kts | 322° |
| 2026-05-04 20:12 | 51.10287 | 1.02476 | 40025 ft | 495 kts | 323° |
| 2026-05-04 20:12 | 51.15938 | 0.96170 | 40021 ft | 495 kts | 323° |
| 2026-05-04 20:13 | 51.21600 | 0.89929 | 40021 ft | 495 kts | 323° |
| 2026-05-04 20:13 | 51.27252 | 0.83668 | 40028 ft | 494 kts | 323° |
| 2026-05-04 20:14 | 51.32884 | 0.77386 | 40013 ft | 494 kts | 323° |
| 2026-05-04 20:14 | 51.38525 | 0.71068 | 40015 ft | 494 kts | 323° |
| 2026-05-04 20:15 | 51.44106 | 0.64796 | 40025 ft | 493 kts | 323° |
| 2026-05-04 20:15 | 51.49741 | 0.58447 | 40025 ft | 493 kts | 323° |
| 2026-05-04 20:16 | 51.55351 | 0.52107 | 40015 ft | 493 kts | 323° |
| 2026-05-04 20:16 | 51.60953 | 0.45756 | 40017 ft | 492 kts | 323° |
| 2026-05-04 20:17 | 51.66557 | 0.39382 | 40019 ft | 492 kts | 323° |
| 2026-05-04 20:17 | 51.72103 | 0.33055 | 40040 ft | 492 kts | 323° |
| 2026-05-04 20:18 | 51.77679 | 0.26675 | 40046 ft | 491 kts | 323° |
| 2026-05-04 20:18 | 51.83255 | 0.20275 | 40049 ft | 491 kts | 323° |
| 2026-05-04 20:19 | 51.88821 | 0.13866 | 40049 ft | 491 kts | 323° |
| 2026-05-04 20:19 | 51.94381 | 0.07445 | 40049 ft | 491 kts | 323° |
| 2026-05-04 20:20 | 51.99953 | 0.00991 | 40044 ft | 491 kts | 323° |
| 2026-05-04 20:20 | 52.05263 | -0.04376 | 40046 ft | 492 kts | 329° |
| 2026-05-04 20:21 | 52.09953 | -0.08603 | 40047 ft | 494 kts | 330° |
| 2026-05-04 20:21 | 52.19043 | -0.16527 | 40048 ft | 493 kts | 330° |
| 2026-05-04 20:22 | 52.25055 | -0.21787 | 40048 ft | 492 kts | 330° |
| 2026-05-04 20:22 | 52.31091 | -0.27112 | 40045 ft | 491 kts | 330° |
| 2026-05-04 20:23 | 52.37103 | -0.32435 | 40049 ft | 491 kts | 330° |
| 2026-05-04 20:23 | 52.43102 | -0.37775 | 40046 ft | 490 kts | 330° |
| 2026-05-04 20:24 | 52.49055 | -0.43091 | 40049 ft | 490 kts | 330° |
| 2026-05-04 20:24 | 52.55042 | -0.48448 | 40047 ft | 489 kts | 330° |
| 2026-05-04 20:25 | 52.61023 | -0.53817 | 40049 ft | 489 kts | 330° |
| 2026-05-04 20:25 | 52.66996 | -0.59194 | 40049 ft | 488 kts | 330° |
| 2026-05-04 20:26 | 52.72916 | -0.64543 | 40046 ft | 488 kts | 330° |
| 2026-05-04 20:26 | 52.78878 | -0.69944 | 40049 ft | 488 kts | 330° |
| 2026-05-04 20:27 | 52.84832 | -0.75355 | 40048 ft | 488 kts | 330° |
| 2026-05-04 20:27 | 52.90756 | -0.80757 | 40048 ft | 488 kts | 330° |
| 2026-05-04 20:28 | 52.96705 | -0.86198 | 40049 ft | 488 kts | 330° |
| 2026-05-04 20:28 | 53.02650 | -0.91650 | 40049 ft | 488 kts | 330° |
| 2026-05-04 20:29 | 53.08567 | -0.97088 | 40049 ft | 488 kts | 330° |
| 2026-05-04 20:29 | 53.14511 | -1.02576 | 40044 ft | 488 kts | 330° |
| 2026-05-04 20:30 | 53.20450 | -1.08075 | 40044 ft | 488 kts | 330° |
| 2026-05-04 20:30 | 53.26384 | -1.13586 | 40043 ft | 488 kts | 330° |
| 2026-05-04 20:31 | 53.32314 | -1.19110 | 40043 ft | 488 kts | 330° |
| 2026-05-04 20:31 | 53.38208 | -1.24619 | 40044 ft | 487 kts | 330° |
| 2026-05-04 20:32 | 53.44133 | -1.30168 | 40044 ft | 487 kts | 330° |
| 2026-05-04 20:32 | 53.50056 | -1.35748 | 40043 ft | 487 kts | 330° |
| 2026-05-04 20:33 | 53.55955 | -1.41333 | 40043 ft | 486 kts | 330° |
| 2026-05-04 20:33 | 53.61845 | -1.46924 | 40045 ft | 486 kts | 330° |
| 2026-05-04 20:34 | 53.67725 | -1.52520 | 40042 ft | 485 kts | 330° |
| 2026-05-04 20:34 | 53.73465 | -1.58393 | 40045 ft | 484 kts | 322° |
| 2026-05-04 20:35 | 53.78600 | -1.65755 | 40049 ft | 483 kts | 317° |
| 2026-05-04 20:35 | 53.83571 | -1.73385 | 40049 ft | 483 kts | 317° |
| 2026-05-04 20:36 | 53.88490 | -1.81033 | 40047 ft | 482 kts | 317° |
| 2026-05-04 20:36 | 53.93449 | -1.88739 | 40047 ft | 482 kts | 317° |
| 2026-05-04 20:37 | 53.98393 | -1.96419 | 40045 ft | 482 kts | 317° |
| 2026-05-04 20:37 | 54.03663 | -2.03508 | 40051 ft | 483 kts | 328° |
| 2026-05-04 20:38 | 54.09382 | -2.09339 | 40049 ft | 483 kts | 328° |
| 2026-05-04 20:38 | 54.15172 | -2.15170 | 40045 ft | 483 kts | 328° |
| 2026-05-04 20:39 | 54.20969 | -2.21016 | 40038 ft | 483 kts | 328° |
| 2026-05-04 20:39 | 54.26757 | -2.26865 | 40049 ft | 483 kts | 328° |
| 2026-05-04 20:40 | 54.32502 | -2.32691 | 39956 ft | 482 kts | 328° |
| 2026-05-04 20:40 | 54.35382 | -2.35618 | 39438 ft | 481 kts | 328° |
| 2026-05-04 20:40 | 54.38264 | -2.38552 | 38745 ft | 479 kts | 328° |
| 2026-05-04 20:41 | 54.41091 | -2.41434 | 37953 ft | 466 kts | 328° |
| 2026-05-04 20:41 | 54.43859 | -2.44260 | 37268 ft | 456 kts | 328° |
| 2026-05-04 20:41 | 54.46561 | -2.47023 | 36625 ft | 447 kts | 328° |
| 2026-05-04 20:41 | 54.49195 | -2.49722 | 35977 ft | 449 kts | 328° |
| 2026-05-04 20:42 | 54.51890 | -2.52490 | 35264 ft | 452 kts | 328° |
| 2026-05-04 20:42 | 54.54592 | -2.55267 | 34525 ft | 454 kts | 328° |
| 2026-05-04 20:42 | 54.57330 | -2.58085 | 33669 ft | 458 kts | 328° |
| 2026-05-04 20:42 | 54.60073 | -2.60912 | 32787 ft | 461 kts | 328° |
| 2026-05-04 20:43 | 54.62831 | -2.63760 | 31925 ft | 463 kts | 328° |
| 2026-05-04 20:43 | 54.65603 | -2.66626 | 31034 ft | 465 kts | 328° |
| 2026-05-04 20:43 | 54.68373 | -2.69494 | 30401 ft | 462 kts | 328° |
| 2026-05-04 20:43 | 54.71119 | -2.72342 | 29752 ft | 458 kts | 328° |
| 2026-05-04 20:44 | 54.73832 | -2.75161 | 29118 ft | 453 kts | 327° |
| 2026-05-04 20:44 | 54.76518 | -2.77957 | 28506 ft | 448 kts | 327° |
| 2026-05-04 20:44 | 54.79177 | -2.80727 | 27903 ft | 443 kts | 327° |
| 2026-05-04 20:44 | 54.81799 | -2.83466 | 27323 ft | 438 kts | 327° |
| 2026-05-04 20:45 | 54.83525 | -2.85270 | 26923 ft | 436 kts | 327° |
| 2026-05-04 20:45 | 54.86114 | -2.87977 | 26331 ft | 432 kts | 327° |
| 2026-05-04 20:45 | 54.88776 | -2.90396 | 25750 ft | 429 kts | 334° |
| 2026-05-04 20:45 | 54.91546 | -2.92453 | 25167 ft | 437 kts | 335° |
| 2026-05-04 20:46 | 54.94379 | -2.94490 | 24551 ft | 440 kts | 335° |
| 2026-05-04 20:46 | 54.97201 | -2.96521 | 23941 ft | 438 kts | 335° |
| 2026-05-04 20:46 | 54.99999 | -2.98542 | 23275 ft | 434 kts | 335° |
| 2026-05-04 20:46 | 55.02744 | -3.00532 | 22636 ft | 429 kts | 335° |
| 2026-05-04 20:47 | 55.05485 | -3.02524 | 22056 ft | 425 kts | 335° |
| 2026-05-04 20:47 | 55.08204 | -3.04504 | 21469 ft | 422 kts | 335° |
| 2026-05-04 20:47 | 55.10907 | -3.06477 | 20880 ft | 418 kts | 335° |
| 2026-05-04 20:47 | 55.13587 | -3.08435 | 20299 ft | 414 kts | 335° |
| 2026-05-04 20:48 | 55.16237 | -3.10372 | 19696 ft | 411 kts | 335° |
| 2026-05-04 20:48 | 55.18865 | -3.12294 | 19076 ft | 408 kts | 335° |
| 2026-05-04 20:48 | 55.21448 | -3.14193 | 18466 ft | 405 kts | 335° |
| 2026-05-04 20:48 | 55.24018 | -3.16083 | 18093 ft | 394 kts | 335° |
| 2026-05-04 20:49 | 55.26449 | -3.17867 | 17599 ft | 364 kts | 335° |
| 2026-05-04 20:49 | 55.28713 | -3.19479 | 17057 ft | 341 kts | 338° |
| 2026-05-04 20:49 | 55.30992 | -3.20223 | 16368 ft | 330 kts | 358° |
| 2026-05-04 20:49 | 55.33240 | -3.19977 | 15790 ft | 317 kts | 2° |
| 2026-05-04 20:50 | 55.35415 | -3.19609 | 15185 ft | 312 kts | 2° |
| 2026-05-04 20:50 | 55.37579 | -3.19252 | 14700 ft | 312 kts | 2° |
| 2026-05-04 20:50 | 55.39737 | -3.18904 | 14215 ft | 310 kts | 2° |
| 2026-05-04 20:50 | 55.41850 | -3.18566 | 13727 ft | 308 kts | 2° |
| 2026-05-04 20:51 | 55.43974 | -3.18230 | 13228 ft | 305 kts | 2° |
| 2026-05-04 20:51 | 55.46088 | -3.17897 | 12758 ft | 304 kts | 1° |
| 2026-05-04 20:51 | 55.48174 | -3.17567 | 12290 ft | 300 kts | 1° |
| 2026-05-04 20:51 | 55.50250 | -3.17242 | 11825 ft | 297 kts | 1° |
| 2026-05-04 20:52 | 55.52302 | -3.16920 | 11367 ft | 295 kts | 1° |
| 2026-05-04 20:52 | 55.54339 | -3.16600 | 10909 ft | 292 kts | 1° |
| 2026-05-04 20:52 | 55.56361 | -3.16281 | 10465 ft | 290 kts | 1° |
| 2026-05-04 20:52 | 55.58353 | -3.15969 | 10060 ft | 291 kts | 1° |
| 2026-05-04 20:53 | 55.60356 | -3.15652 | 9565 ft | 283 kts | 2° |
| 2026-05-04 20:53 | 55.62323 | -3.15346 | 9113 ft | 284 kts | 2° |
| 2026-05-04 20:53 | 55.64283 | -3.15038 | 8665 ft | 279 kts | 2° |
| 2026-05-04 20:53 | 55.66214 | -3.14732 | 8228 ft | 278 kts | 2° |
| 2026-05-04 20:54 | 55.68135 | -3.14428 | 7807 ft | 276 kts | 2° |
| 2026-05-04 20:54 | 55.70011 | -3.14128 | 7504 ft | 260 kts | 2° |
| 2026-05-04 20:54 | 55.71765 | -3.13829 | 7259 ft | 254 kts | 4° |
| 2026-05-04 20:54 | 55.73462 | -3.13050 | 7055 ft | 252 kts | 17° |
| 2026-05-04 20:55 | 55.75094 | -3.11921 | 6856 ft | 252 kts | 19° |
| 2026-05-04 20:55 | 55.76717 | -3.10751 | 6661 ft | 251 kts | 19° |
| 2026-05-04 20:55 | 55.78329 | -3.09588 | 6478 ft | 249 kts | 19° |
| 2026-05-04 20:55 | 55.79934 | -3.08433 | 6262 ft | 248 kts | 19° |
| 2026-05-04 20:56 | 55.81526 | -3.07295 | 6054 ft | 246 kts | 19° |
| 2026-05-04 20:56 | 55.83113 | -3.06157 | 5818 ft | 245 kts | 19° |
| 2026-05-04 20:56 | 55.84694 | -3.05029 | 5550 ft | 244 kts | 19° |
| 2026-05-04 20:56 | 55.86269 | -3.03909 | 5290 ft | 242 kts | 19° |
| 2026-05-04 20:57 | 55.87831 | -3.02804 | 5034 ft | 241 kts | 19° |
| 2026-05-04 20:57 | 55.89385 | -3.01711 | 4774 ft | 239 kts | 19° |
| 2026-05-04 20:57 | 55.90912 | -3.00632 | 4507 ft | 238 kts | 19° |
| 2026-05-04 20:57 | 55.92455 | -2.99545 | 4243 ft | 238 kts | 17° |
| 2026-05-04 20:58 | 55.94036 | -2.98761 | 4026 ft | 235 kts | 10° |
| 2026-05-04 20:58 | 55.95641 | -2.98142 | 3972 ft | 236 kts | 9° |
| 2026-05-04 20:58 | 55.97252 | -2.97538 | 3973 ft | 236 kts | 9° |
| 2026-05-04 20:58 | 55.98836 | -2.96940 | 3967 ft | 226 kts | 9° |
| 2026-05-04 20:59 | 56.00345 | -2.96709 | 3964 ft | 213 kts | 348° |
| 2026-05-04 20:59 | 56.01711 | -2.97590 | 3979 ft | 207 kts | 332° |
| 2026-05-04 20:59 | 56.02950 | -2.98789 | 3987 ft | 200 kts | 329° |
| 2026-05-04 20:59 | 56.04157 | -3.00007 | 3974 ft | 199 kts | 329° |
| 2026-05-04 21:00 | 56.05288 | -3.01419 | 3978 ft | 200 kts | 314° |
| 2026-05-04 21:00 | 56.06071 | -3.03461 | 3969 ft | 199 kts | 298° |
| 2026-05-04 21:00 | 56.06194 | -3.05925 | 3919 ft | 207 kts | 258° |
| 2026-05-04 21:00 | 56.05439 | -3.08080 | 3489 ft | 207 kts | 229° |
| 2026-05-04 21:01 | 56.04466 | -3.09942 | 3085 ft | 202 kts | 231° |
| 2026-05-04 21:01 | 56.03640 | -3.11813 | 2982 ft | 185 kts | 238° |
| 2026-05-04 21:01 | 56.02965 | -3.13726 | 2986 ft | 180 kts | 243° |
| 2026-05-04 21:01 | 56.02327 | -3.15653 | 2847 ft | 180 kts | 242° |
| 2026-05-04 21:02 | 56.01679 | -3.17550 | 2592 ft | 178 kts | 242° |
| 2026-05-04 21:02 | 56.01037 | -3.19442 | 2341 ft | 177 kts | 242° |
| 2026-05-04 21:02 | 56.00403 | -3.21312 | 2092 ft | 172 kts | 243° |
| 2026-05-04 21:02 | 55.99807 | -3.23068 | 1859 ft | 158 kts | 244° |
| 2026-05-04 21:03 | 55.99267 | -3.24662 | 1651 ft | 143 kts | 244° |
| 2026-05-04 21:03 | 55.98775 | -3.26116 | 1470 ft | 131 kts | 244° |
| 2026-05-04 21:03 | 55.98328 | -3.27436 | 1291 ft | 121 kts | 243° |
| 2026-05-04 21:03 | 55.97894 | -3.28719 | 1130 ft | 121 kts | 243° |
| 2026-05-04 21:04 | 55.97455 | -3.29995 | 957 ft | 121 kts | 241° |
| 2026-05-04 21:04 | 55.97019 | -3.31288 | 755 ft | 122 kts | 242° |
| 2026-05-04 21:04 | 55.96594 | -3.32598 | 595 ft | 124 kts | 241° |
| 2026-05-04 21:04 | 55.96123 | -3.33934 | 407 ft | 129 kts | 240° |
| 2026-05-04 21:05 | 55.95663 | -3.35281 | 218 ft | 126 kts | 240° |
| 2026-05-04 21:05 | 55.95221 | -3.36600 | 116 ft | 115 kts | 239° |
| 2026-05-04 21:05 | 55.94932 | -3.37451 | 114 ft | 46 kts | 239° |
| 2026-05-04 21:05 | 55.94858 | -3.37667 | 118 ft | 1 kts | 239° |
| 2026-05-04 21:06 | 55.94796 | -3.37853 | 118 ft | 28 kts | 239° |
| 2026-05-04 21:06 | 55.94724 | -3.38044 | 117 ft | 1 kts | 212° |
| 2026-05-04 21:06 | 55.94647 | -3.38034 | 119 ft | 6 kts | 149° |
| 2026-05-04 21:06 | 55.94597 | -3.37954 | 117 ft | 11 kts | 121° |
| 2026-05-04 21:07 | 55.94602 | -3.37856 | 119 ft | 10 kts | 66° |
| 2026-05-04 21:07 | 55.94639 | -3.37734 | 120 ft | 12 kts | 60° |
| 2026-05-04 21:07 | 55.94684 | -3.37606 | 119 ft | 10 kts | 58° |
| 2026-05-04 21:07 | 55.94724 | -3.37491 | 120 ft | 13 kts | 58° |
| 2026-05-04 21:08 | 55.94775 | -3.37341 | 117 ft | 16 kts | 58° |
| 2026-05-04 21:08 | 55.94839 | -3.37153 | 118 ft | 19 kts | 59° |
| 2026-05-04 21:08 | 55.94877 | -3.37042 | 118 ft | 7 kts | 59° |
| 2026-05-04 21:08 | 55.94915 | -3.36928 | 118 ft | 13 kts | 59° |
| 2026-05-04 21:09 | 55.94969 | -3.36769 | 117 ft | 17 kts | 59° |
| 2026-05-04 21:09 | 55.95035 | -3.36573 | 118 ft | 20 kts | 59° |
| 2026-05-04 21:09 | 55.95114 | -3.36341 | 117 ft | 21 kts | 59° |
| 2026-05-04 21:09 | 55.95123 | -3.36159 | 119 ft | 15 kts | 110° |
| 2026-05-04 21:10 | 55.95085 | -3.35968 | 120 ft | 15 kts | 110° |